createdAt,value
2022-08-30T00:01:40.838Z,69.00
2022-08-30T00:11:45.990Z,69.90
2022-08-30T00:21:49.778Z,70.30
2022-08-30T00:31:54.812Z,70.80
2022-08-30T00:41:58.500Z,70.60
2022-08-30T00:52:05.203Z,71.10
2022-08-30T01:02:10.800Z,71.50
2022-08-30T01:12:19.247Z,71.50
2022-08-30T01:22:29.575Z,71.70
2022-08-30T01:32:42.874Z,73.00
2022-08-30T01:42:47.126Z,73.70
2022-08-30T01:52:52.470Z,74.70
2022-08-30T02:02:58.043Z,76.00
2022-08-30T02:13:08.614Z,77.00
2022-08-30T02:23:12.438Z,77.60
2022-08-30T02:33:17.694Z,78.40
2022-08-30T02:43:21.839Z,78.70
2022-08-30T02:53:31.069Z,79.90
2022-08-30T03:03:39.362Z,80.90
2022-08-30T03:13:44.496Z,82.50
2022-08-30T03:23:50.972Z,83.30
2022-08-30T03:33:56.142Z,84.90
2022-08-30T03:44:00.291Z,85.60
2022-08-30T03:54:06.506Z,86.10
2022-08-30T04:04:10.321Z,85.50
2022-08-30T04:14:17.647Z,86.20
2022-08-30T04:24:21.392Z,87.20
2022-08-30T04:34:26.508Z,88.90
2022-08-30T04:44:31.341Z,90.00
2022-08-30T04:54:36.448Z,90.50
2022-08-30T05:05:02.706Z,90.80
2022-08-30T05:15:12.804Z,90.60
2022-08-30T05:25:18.600Z,90.40
2022-08-30T05:35:25.869Z,90.40
2022-08-30T05:45:29.861Z,90.80
2022-08-30T05:55:37.471Z,90.90
2022-08-30T06:05:41.408Z,91.30
2022-08-30T06:15:47.149Z,91.30
2022-08-30T06:25:51.183Z,90.80
2022-08-30T06:35:58.322Z,90.50
2022-08-30T06:46:04.082Z,90.20
2022-08-30T06:56:16.640Z,88.70
2022-08-30T07:06:24.293Z,87.20
2022-08-30T07:16:30.020Z,82.70
2022-08-30T07:26:37.923Z,81.20
2022-08-30T07:36:57.910Z,80.80
2022-08-30T07:47:02.476Z,79.70
2022-08-30T07:57:07.766Z,77.60
2022-08-30T08:07:12.049Z,77.10
2022-08-30T08:17:19.258Z,75.50
2022-08-30T08:27:24.679Z,73.50
2022-08-30T08:37:38.181Z,72.70
2022-08-30T08:48:06.402Z,70.60
2022-08-30T08:58:24.076Z,68.70
2022-08-30T09:08:28.291Z,67.50
2022-08-30T09:18:51.407Z,66.60
2022-08-30T09:28:59.974Z,65.90
2022-08-30T09:39:08.648Z,64.00
2022-08-30T09:49:35.376Z,63.70
2022-08-30T09:59:50.068Z,61.70
2022-08-30T10:10:01.732Z,58.90
2022-08-30T10:20:19.355Z,57.00
2022-08-30T10:30:24.135Z,55.70
2022-08-30T10:40:51.674Z,52.00
2022-08-30T10:51:00.109Z,52.10
2022-08-30T11:01:56.146Z,50.30
2022-08-30T11:12:34.891Z,49.50
2022-08-30T11:22:39.970Z,48.70
2022-08-30T11:33:02.927Z,48.70
2022-08-30T11:43:55.544Z,48.50
2022-08-30T11:54:12.853Z,47.80
2022-08-30T12:04:38.445Z,46.80
2022-08-30T12:15:03.312Z,46.30
2022-08-30T12:25:23.212Z,46.20
2022-08-30T12:35:29.412Z,45.80
2022-08-30T12:45:41.513Z,44.90
2022-08-30T12:55:55.247Z,44.20
2022-08-30T13:06:07.380Z,43.30
2022-08-30T13:16:29.582Z,43.30
2022-08-30T13:26:41.056Z,43.10
2022-08-30T13:36:50.442Z,42.40
2022-08-30T13:47:32.209Z,41.90
2022-08-30T14:07:50.731Z,42.10
2022-08-30T14:17:54.589Z,42.30
2022-08-30T14:28:09.622Z,41.60
2022-08-30T14:38:15.782Z,41.50
2022-08-30T14:48:27.239Z,41.20
2022-08-30T14:58:34.415Z,40.60
2022-08-30T15:08:40.470Z,39.60
2022-08-30T15:18:44.440Z,41.10
2022-08-30T15:28:49.743Z,40.70
2022-08-30T15:38:55.779Z,40.90
2022-08-30T15:49:04.588Z,40.60
2022-08-30T15:59:08.462Z,40.20
2022-08-30T16:09:14.808Z,39.70
2022-08-30T16:19:18.572Z,39.50
2022-08-30T16:29:41.506Z,39.60
2022-08-30T16:39:46.867Z,41.20
2022-08-30T16:49:52.172Z,41.70
2022-08-30T16:59:55.970Z,41.80
2022-08-30T17:10:03.775Z,41.10
2022-08-30T17:20:10.718Z,40.60
2022-08-30T17:30:19.168Z,40.70
2022-08-30T17:40:23.252Z,41.80
2022-08-30T17:50:28.420Z,42.00
2022-08-30T18:00:37.094Z,43.30
2022-08-30T18:10:43.899Z,44.20
2022-08-30T18:20:49.122Z,45.00
2022-08-30T18:30:56.850Z,45.90
2022-08-30T18:41:03.359Z,46.60
2022-08-30T18:51:11.835Z,47.10
2022-08-30T19:01:20.710Z,47.50
2022-08-30T19:11:27.870Z,48.10
2022-08-30T19:21:32.339Z,48.50
2022-08-30T19:31:38.603Z,49.10
2022-08-30T19:41:43.002Z,49.70
2022-08-30T19:51:48.414Z,50.40
2022-08-30T20:01:53.580Z,50.90
2022-08-30T20:12:01.358Z,51.40
2022-08-30T20:22:08.358Z,51.90
2022-08-30T20:32:15.073Z,52.50
2022-08-30T20:42:21.526Z,53.10
2022-08-30T20:52:26.655Z,54.00
2022-08-30T21:02:31.477Z,55.60
2022-08-30T21:12:37.979Z,57.50
2022-08-30T21:22:41.723Z,57.30
2022-08-30T21:32:46.792Z,58.00
2022-08-30T21:42:50.567Z,58.60
2022-08-30T21:52:55.639Z,59.50
2022-08-30T22:03:02.118Z,60.00
2022-08-30T22:13:10.013Z,60.70
2022-08-30T22:23:24.439Z,61.30
2022-08-30T22:33:32.739Z,61.90
2022-08-30T22:43:36.512Z,62.30
2022-08-30T22:53:48.111Z,62.60
2022-08-30T23:03:52.673Z,63.20
2022-08-30T23:13:57.970Z,63.60
2022-08-30T23:24:19.368Z,63.90
2022-08-30T23:34:41.756Z,64.30
2022-08-30T23:45:03.639Z,64.60
2022-08-30T23:55:58.838Z,64.90
